Time;durP1;ratioP1;P1;durP2;ratioP2;P2;SDS_P1;SDS_P2;PMS_P1;PMS_P2;Temp;Humidity;BMP_temperature;BMP_pressure;BME280_temperature;BME280_humidity;BME280_pressure;Samples;Min_cycle;Max_cycle;Signal;HPM_P1;HPM_P2
2023/10/31 00:04:34;;;;;;;15.45;11.48;;;;;;;8.64;100.00;99273.31;10438412;28;20175;-82
2023/10/31 00:09:35;;;;;;;13.80;9.75;;;;;;;8.57;100.00;99276.56;10483665;28;20040;-83
2023/10/31 00:14:35;;;;;;;22.00;9.88;;;;;;;8.59;100.00;99280.13;10482278;28;20121;-82
2023/10/31 00:19:36;;;;;;;12.75;8.80;;;;;;;8.54;100.00;99292.13;10443423;28;20461;-83
2023/10/31 00:24:36;;;;;;;16.00;8.77;;;;;;;8.55;100.00;99301.72;10402427;28;20547;-83
2023/10/31 00:29:37;;;;;;;13.82;8.20;;;;;;;8.52;100.00;99292.97;10420664;28;20068;-82
2023/10/31 00:34:37;;;;;;;14.80;8.10;;;;;;;8.55;100.00;99306.94;10442874;28;20503;-84
2023/10/31 00:39:38;;;;;;;16.42;8.88;;;;;;;8.55;100.00;99310.44;10426328;28;20124;-82
2023/10/31 00:44:38;;;;;;;20.60;9.82;;;;;;;8.48;100.00;99314.53;10409481;28;20068;-83
2023/10/31 00:49:39;;;;;;;16.02;10.90;;;;;;;8.49;100.00;99323.28;10421894;28;20145;-83
2023/10/31 00:54:39;;;;;;;21.48;13.27;;;;;;;8.45;100.00;99321.41;10402288;28;20397;-83
2023/10/31 00:59:40;;;;;;;22.17;14.35;;;;;;;8.44;100.00;99335.28;10400381;28;20064;-81
2023/10/31 01:04:40;;;;;;;32.13;17.20;;;;;;;8.42;100.00;99342.16;10369837;28;20124;-82
2023/10/31 01:09:41;;;;;;;28.15;15.88;;;;;;;8.43;100.00;99355.22;10423435;28;20041;-82
2023/10/31 01:14:41;;;;;;;32.90;17.73;;;;;;;8.41;100.00;99358.63;10465770;28;20495;-82
2023/10/31 01:19:42;;;;;;;27.88;16.90;;;;;;;8.42;100.00;99361.28;10449752;28;20052;-83
2023/10/31 01:24:42;;;;;;;29.55;17.60;;;;;;;8.45;100.00;99379.63;10449534;28;20123;-81
2023/10/31 01:29:43;;;;;;;24.58;17.17;;;;;;;8.46;100.00;99372.72;10464643;28;20101;-82
2023/10/31 01:34:43;;;;;;;32.97;16.30;;;;;;;8.43;100.00;99370.00;10436501;28;20113;-83
2023/10/31 01:39:44;;;;;;;26.95;16.42;;;;;;;8.42;100.00;99374.31;10456535;28;20060;-81
2023/10/31 01:44:44;;;;;;;23.08;15.27;;;;;;;8.45;100.00;99384.84;10465086;28;20130;-82
2023/10/31 01:49:45;;;;;;;30.45;16.42;;;;;;;8.47;100.00;99382.31;10462114;28;20036;-83
2023/10/31 01:54:45;;;;;;;27.20;14.18;;;;;;;8.50;100.00;99375.47;10464476;28;20052;-83
2023/10/31 01:59:46;;;;;;;33.95;16.67;;;;;;;8.53;100.00;99387.75;10445243;28;20051;-82
2023/10/31 02:04:46;;;;;;;29.60;16.17;;;;;;;8.58;100.00;99386.16;10465095;28;20036;-83
2023/10/31 02:09:47;;;;;;;33.45;17.05;;;;;;;8.58;100.00;99398.31;10462176;28;20070;-83
2023/10/31 02:14:47;;;;;;;25.13;16.45;;;;;;;8.56;100.00;99397.38;10458938;28;20127;-82
2023/10/31 02:19:48;;;;;;;33.00;18.25;;;;;;;8.56;100.00;99397.38;10475040;28;20127;-82
2023/10/31 02:24:48;;;;;;;37.80;18.42;;;;;;;8.56;100.00;99382.63;10470092;28;21640;-82
2023/10/31 02:29:49;;;;;;;39.63;21.20;;;;;;;8.58;100.00;99387.88;10472962;28;20041;-82
2023/10/31 02:34:49;;;;;;;39.60;21.73;;;;;;;8.56;100.00;99392.16;10461162;28;20044;-82
2023/10/31 02:39:50;;;;;;;43.30;24.15;;;;;;;8.54;100.00;99388.63;10482139;28;20120;-82
2023/10/31 02:44:50;;;;;;;58.83;26.35;;;;;;;8.55;100.00;99390.38;10487339;28;20072;-82
2023/10/31 02:49:51;;;;;;;51.83;26.88;;;;;;;8.56;100.00;99394.75;10468462;28;20476;-81
2023/10/31 02:54:51;;;;;;;44.03;23.98;;;;;;;8.57;100.00;99391.31;10471055;28;20576;-81
2023/10/31 02:59:52;;;;;;;48.25;24.55;;;;;;;8.57;100.00;99392.22;10486129;28;20045;-82
2023/10/31 03:04:52;;;;;;;51.55;27.33;;;;;;;8.57;100.00;99394.81;10448080;28;20127;-82
2023/10/31 03:09:54;;;;;;;49.15;25.67;;;;;;;8.56;100.00;99402.59;10447013;28;20127;-81
2023/10/31 03:14:54;;;;;;;32.77;18.67;;;;;;;8.55;100.00;99409.53;10478015;28;20043;-82
2023/10/31 03:19:55;;;;;;;48.72;24.05;;;;;;;8.57;100.00;99402.66;10468265;28;20131;-82
2023/10/31 03:24:55;;;;;;;42.28;22.27;;;;;;;8.51;100.00;99411.16;10468965;28;20064;-83
2023/10/31 03:29:56;;;;;;;50.17;23.88;;;;;;;8.49;100.00;99414.56;10487293;28;20495;-81
2023/10/31 03:34:56;;;;;;;41.67;24.20;;;;;;;8.49;100.00;99425.00;10478289;28;20128;-82
2023/10/31 03:39:57;;;;;;;48.38;23.45;;;;;;;8.49;100.00;99422.38;10475308;28;20123;-83
2023/10/31 03:44:57;;;;;;;43.15;23.70;;;;;;;8.48;100.00;99426.66;10450895;28;20135;-83
2023/10/31 03:49:58;;;;;;;49.72;23.15;;;;;;;8.48;100.00;99437.09;10457716;28;20132;-82
2023/10/31 03:54:59;;;;;;;45.28;26.33;;;;;;;8.49;100.00;99443.25;10464217;28;20037;-82
2023/10/31 04:00:00;;;;;;;41.45;22.13;;;;;;;8.50;100.00;99453.72;10463959;28;20051;-83
2023/10/31 04:05:00;;;;;;;36.08;20.73;;;;;;;8.50;100.00;99463.25;10451904;28;20083;-83
2023/10/31 04:10:01;;;;;;;46.13;23.15;;;;;;;8.55;100.00;99468.63;10481904;28;20045;-82
2023/10/31 04:15:02;;;;;;;36.10;21.60;;;;;;;8.50;100.00;99456.31;10461963;28;20033;-83
2023/10/31 04:20:03;;;;;;;45.05;23.02;;;;;;;8.49;100.00;99466.72;10466310;28;20036;-83
2023/10/31 04:25:04;;;;;;;48.53;22.70;;;;;;;8.49;100.00;99475.41;10468768;28;20480;-83
2023/10/31 04:30:05;;;;;;;38.08;21.17;;;;;;;8.50;100.00;99489.34;10483283;28;20043;-83
2023/10/31 04:35:06;;;;;;;36.33;21.27;;;;;;;8.55;100.00;99495.59;10462847;28;20042;-83
2023/10/31 04:40:07;;;;;;;38.65;22.58;;;;;;;8.54;100.00;99508.56;10467915;28;20044;-83
2023/10/31 04:45:08;;;;;;;35.42;21.60;;;;;;;8.50;100.00;99507.59;10482767;28;20041;-84
2023/10/31 04:50:09;;;;;;;32.33;19.23;;;;;;;8.48;100.00;99510.09;10468175;28;20170;-82
2023/10/31 04:55:09;;;;;;;33.25;19.55;;;;;;;8.45;100.00;99512.59;10478347;28;20098;-82
2023/10/31 05:00:10;;;;;;;29.50;16.73;;;;;;;8.43;100.00;99518.63;10451462;28;20037;-81
2023/10/31 05:05:11;;;;;;;35.05;17.55;;;;;;;8.40;100.00;99524.59;10448266;28;20071;-81
2023/10/31 05:10:12;;;;;;;27.00;18.17;;;;;;;8.36;100.00;99528.84;10466173;28;20033;-82
2023/10/31 05:15:12;;;;;;;30.77;18.58;;;;;;;8.32;100.00;99539.06;10459005;28;20036;-81
2023/10/31 05:20:13;;;;;;;36.70;19.52;;;;;;;8.31;100.00;99561.66;10482559;28;20064;-82
2023/10/31 05:25:13;;;;;;;38.88;19.83;;;;;;;8.29;100.00;99563.34;10463992;28;20048;-82
2023/10/31 05:30:14;;;;;;;35.17;20.85;;;;;;;8.28;100.00;99566.78;10432828;28;20060;-82
2023/10/31 05:35:15;;;;;;;48.92;22.95;;;;;;;8.27;100.00;99577.13;10431840;28;20481;-82
2023/10/31 05:40:16;;;;;;;37.50;22.95;;;;;;;8.26;100.00;99577.97;10450545;28;20048;-82
2023/10/31 05:45:16;;;;;;;31.77;19.58;;;;;;;8.27;100.00;99587.56;10445392;28;20035;-81
2023/10/31 05:50:17;;;;;;;37.95;25.05;;;;;;;8.29;100.00;99593.72;10479460;28;20533;-81
2023/10/31 05:55:17;;;;;;;34.45;21.15;;;;;;;8.30;100.00;99603.31;10446565;28;20046;-81
2023/10/31 06:00:18;;;;;;;40.17;21.35;;;;;;;8.27;100.00;99605.81;10462947;28;20111;-82
2023/10/31 06:05:18;;;;;;;39.08;23.77;;;;;;;8.27;100.00;99608.41;10462226;28;20097;-82
2023/10/31 06:10:22;;;;;;;37.28;22.70;;;;;;;8.25;100.00;99616.19;10473755;28;20071;-83
2023/10/31 06:15:23;;;;;;;39.85;22.58;;;;;;;8.22;100.00;99616.94;10445035;28;20052;-82
2023/10/31 06:20:23;;;;;;;43.80;21.38;;;;;;;8.26;100.00;99619.66;10445813;28;20131;-81
2023/10/31 06:25:24;;;;;;;34.70;23.23;;;;;;;8.20;100.00;99626.44;10463159;28;20094;-81
2023/10/31 06:30:25;;;;;;;35.65;22.02;;;;;;;8.16;100.00;99619.31;10462874;28;20037;-80
2023/10/31 06:35:25;;;;;;;35.38;20.70;;;;;;;8.19;100.00;99623.78;10438073;28;20047;-80
2023/10/31 06:40:26;;;;;;;35.15;21.30;;;;;;;8.17;100.00;99631.53;10463160;28;20040;-80
2023/10/31 06:45:26;;;;;;;37.38;22.25;;;;;;;8.13;100.00;99634.84;10460693;28;20048;-81
2023/10/31 06:50:27;;;;;;;34.60;19.27;;;;;;;8.13;100.00;99640.06;10443695;28;20116;-81
2023/10/31 06:55:28;;;;;;;34.50;19.13;;;;;;;8.14;100.00;99648.78;10473093;28;20481;-82
2023/10/31 07:00:28;;;;;;;34.38;17.77;;;;;;;8.07;100.00;99650.25;10461258;28;20119;-79
2023/10/31 07:05:29;;;;;;;28.27;18.83;;;;;;;8.05;100.00;99647.59;10463366;28;20131;-80
2023/10/31 07:10:29;;;;;;;28.83;16.63;;;;;;;7.95;100.00;99661.09;10475549;28;20056;-81
2023/10/31 07:15:30;;;;;;;26.23;16.52;;;;;;;7.99;100.00;99657.78;10462577;28;20509;-81
2023/10/31 07:20:31;;;;;;;24.88;16.02;;;;;;;8.10;100.00;99672.94;10479038;28;20536;-81
2023/10/31 07:25:31;;;;;;;42.75;13.95;;;;;;;8.21;100.00;99677.72;10453067;28;20040;-79
2023/10/31 07:30:32;;;;;;;24.80;14.38;;;;;;;8.20;100.00;99667.25;10485093;28;20124;-82
2023/10/31 07:35:32;;;;;;;25.88;13.55;;;;;;;8.20;100.00;99681.16;10471244;28;20455;-80
2023/10/31 07:40:33;;;;;;;22.23;12.75;;;;;;;8.30;100.00;99677.19;10466878;28;20097;-84
2023/10/31 07:45:33;;;;;;;22.30;13.15;;;;;;;8.32;100.00;99688.56;10469731;28;20075;-84
2023/10/31 07:50:33;;;;;;;19.10;13.07;;;;;;;8.30;100.00;99690.25;10452293;28;20496;-85
2023/10/31 07:55:34;;;;;;;21.67;14.57;;;;;;;8.32;100.00;99699.00;10487903;28;20136;-84
2023/10/31 08:00:35;;;;;;;22.10;14.40;;;;;;;8.42;100.00;99692.41;10467546;28;20119;-84
2023/10/31 08:05:36;;;;;;;23.50;13.67;;;;;;;8.61;100.00;99694.03;10477533;28;20045;-84
2023/10/31 08:10:36;;;;;;;23.15;14.50;;;;;;;8.67;100.00;99693.34;10461283;28;22402;-84
2023/10/31 08:15:37;;;;;;;23.10;14.68;;;;;;;8.51;100.00;99687.56;10468750;28;20115;-83
2023/10/31 08:20:38;;;;;;;21.27;13.32;;;;;;;8.48;100.00;99686.53;10441062;28;20064;-82
2023/10/31 08:25:38;;;;;;;24.02;13.93;;;;;;;8.85;100.00;99700.06;10468072;28;20115;-83
2023/10/31 08:30:39;;;;;;;21.42;12.95;;;;;;;9.15;100.00;99700.28;10448273;28;20045;-83
2023/10/31 08:35:40;;;;;;;23.30;12.27;;;;;;;9.06;100.00;99713.00;10484799;28;20132;-83
2023/10/31 08:40:41;;;;;;;20.52;12.57;;;;;;;9.05;100.00;99704.25;10449198;28;20086;-82
2023/10/31 08:45:41;;;;;;;20.10;13.17;;;;;;;9.02;100.00;99711.97;10444271;28;20033;-82
2023/10/31 08:50:42;;;;;;;20.25;14.07;;;;;;;9.42;100.00;99712.50;10441879;28;20043;-84
2023/10/31 08:55:46;;;;;;;18.98;10.70;;;;;;;9.74;100.00;99709.16;10450108;28;20043;-83
2023/10/31 09:00:46;;;;;;;21.27;12.18;;;;;;;9.99;100.00;99710.84;10481375;28;20033;-85
2023/10/31 09:05:47;;;;;;;17.48;11.55;;;;;;;10.40;100.00;99702.50;10483828;28;20044;-83
2023/10/31 09:10:47;;;;;;;17.40;9.23;;;;;;;10.53;100.00;99693.31;10466733;28;20370;-81
2023/10/31 09:15:49;;;;;;;13.13;8.68;;;;;;;10.54;100.00;99682.88;10473890;28;20123;-86
2023/10/31 09:20:50;;;;;;;12.75;9.25;;;;;;;10.38;100.00;99686.75;10482849;28;20105;-87
2023/10/31 09:25:51;;;;;;;17.98;9.77;;;;;;;10.43;100.00;99698.25;10482698;28;20114;-85
2023/10/31 09:30:51;;;;;;;12.95;8.85;;;;;;;10.42;100.00;99708.66;10475733;28;20059;-86
2023/10/31 09:35:52;;;;;;;15.75;7.97;;;;;;;10.47;100.00;99727.13;10482316;28;20040;-85
2023/10/31 09:40:52;;;;;;;12.27;6.88;;;;;;;10.19;100.00;99739.34;10479733;28;20047;-85
2023/10/31 09:45:53;;;;;;;15.65;8.13;;;;;;;10.09;100.00;99751.22;10464435;28;20563;-85
2023/10/31 09:50:53;;;;;;;13.75;8.70;;;;;;;9.97;100.00;99765.66;10460287;28;20136;-86
2023/10/31 09:55:54;;;;;;;11.63;8.25;;;;;;;10.16;100.00;99775.84;10479531;28;20128;-86
2023/10/31 10:00:54;;;;;;;15.73;8.73;;;;;;;10.48;100.00;99776.84;10480156;28;20119;-87
2023/10/31 10:05:55;;;;;;;12.60;6.80;;;;;;;10.47;100.00;99785.56;10464138;28;20449;-86
2023/10/31 10:10:56;;;;;;;11.63;7.78;;;;;;;10.58;100.00;99793.75;10464040;28;20408;-87
2023/10/31 10:15:56;;;;;;;9.55;6.38;;;;;;;11.44;100.00;99787.44;10464690;28;20083;-87
2023/10/31 10:21:01;;;;;;;11.13;4.78;;;;;;;15.12;100.00;99727.81;10479388;28;20178;-86
2023/10/31 10:26:02;;;;;;;6.72;3.88;;;;;;;16.50;100.00;99791.44;10479769;28;20068;-86
2023/10/31 10:31:02;;;;;;;7.57;4.25;;;;;;;13.95;100.00;99810.44;10463559;28;20559;-86
2023/10/31 10:36:03;;;;;;;6.30;3.97;;;;;;;13.50;100.00;99804.38;10449182;28;20119;-84
2023/10/31 10:41:04;;;;;;;10.85;4.45;;;;;;;13.25;100.00;99803.00;10462793;28;20476;-85
2023/10/31 10:46:04;;;;;;;23.50;5.57;;;;;;;14.50;100.00;99795.47;10459291;28;20056;-85
2023/10/31 10:51:10;;;;;;;14.45;3.78;;;;;;;17.50;100.00;99835.09;10463453;28;20051;-87
2023/10/31 10:56:41;;;;;;;6.90;3.50;;;;;;;17.99;100.00;99884.56;10461530;28;20040;-86
2023/10/31 11:01:42;;;;;;;6.15;2.88;;;;;;;17.12;100.00;99900.16;10446030;28;20576;-82
2023/10/31 11:06:42;;;;;;;8.57;4.45;;;;;;;15.37;100.00;99867.78;10463356;28;20131;-81
2023/10/31 11:11:48;;;;;;;4.15;2.67;;;;;;;15.07;100.00;99864.78;10486603;28;20403;-82
2023/10/31 11:16:51;;;;;;;5.10;3.22;;;;;;;14.00;100.00;99854.34;10486938;28;20119;-82
2023/10/31 11:21:59;;;;;;;7.07;2.88;;;;;;;15.27;100.00;99851.84;10450432;28;20454;-82
2023/10/31 11:27:01;;;;;;;6.60;2.33;;;;;;;16.61;100.00;99897.16;10470326;28;20132;-81
2023/10/31 11:32:02;;;;;;;6.68;2.72;;;;;;;15.72;100.00;99877.84;10453335;28;20052;-81
2023/10/31 11:37:19;;;;;;;5.60;3.28;;;;;;;14.89;100.00;99891.75;10469102;28;20090;-81
2023/10/31 11:42:20;;;;;;;8.20;3.63;;;;;;;15.02;100.00;99862.94;10437750;28;20090;-83
2023/10/31 11:47:22;;;;;;;6.97;3.72;;;;;;;16.12;100.00;99869.47;10485025;28;20102;-82
2023/10/31 11:52:23;;;;;;;;;;;;;;;17.07;100.00;99891.31;10469467;28;20120;-83
2023/10/31 11:57:30;;;;;;;3.37;2.07;;;;;;;17.97;100.00;99896.91;10485919;28;19982;-83
2023/10/31 12:02:30;;;;;;;3.60;2.08;;;;;;;19.05;100.00;99935.84;10486461;28;20282;-82
2023/10/31 12:07:44;;;;;;;3.55;1.33;;;;;;;16.07;100.00;99938.03;10451442;28;20044;-82
2023/10/31 12:12:44;;;;;;;5.13;2.22;;;;;;;15.35;100.00;99898.50;10436803;28;20374;-82
2023/10/31 12:17:45;;;;;;;2.90;1.67;;;;;;;16.32;100.00;99913.66;10448130;28;20127;-82
2023/10/31 12:22:45;;;;;;;3.92;1.70;;;;;;;17.22;100.00;99960.13;10485657;28;20036;-81
2023/10/31 12:27:49;;;;;;;2.92;1.45;;;;;;;16.32;100.00;99948.84;10451273;28;20124;-82
2023/10/31 12:32:56;;;;;;;4.78;1.73;;;;;;;14.19;100.00;99932.75;10453533;28;20036;-83
2023/10/31 12:37:57;;;;;;;4.68;2.40;;;;;;;13.34;100.00;99910.91;10483798;28;20102;-81
2023/10/31 12:42:57;;;;;;;4.88;1.95;;;;;;;12.89;100.00;99899.44;10484579;28;20067;-83
2023/10/31 12:48:06;;;;;;;7.53;4.03;;;;;;;12.34;100.00;99915.63;10467251;28;20203;-82
2023/10/31 12:53:06;;;;;;;7.00;2.00;;;;;;;12.83;100.00;99904.53;10481040;28;20048;-82
2023/10/31 12:58:10;;;;;;;3.72;1.38;;;;;;;16.48;100.00;99897.06;10484430;28;20044;-80
2023/10/31 13:03:11;;;;;;;12.05;2.55;;;;;;;16.98;100.00;99958.22;10467019;28;20044;-81
2023/10/31 13:08:15;;;;;;;4.68;1.50;;;;;;;14.38;100.00;99941.84;10473379;28;20040;-81
2023/10/31 13:13:16;;;;;;;5.57;2.35;;;;;;;13.84;100.00;99929.44;10467100;28;20039;-82
2023/10/31 13:18:16;;;;;;;5.05;1.60;;;;;;;13.23;100.00;99912.44;10462662;28;20064;-81
2023/10/31 13:23:19;;;;;;;2.78;1.58;;;;;;;12.95;100.00;99906.56;10477744;28;20132;-82
2023/10/31 13:28:19;;;;;;;3.05;1.83;;;;;;;12.92;100.00;99903.88;10449966;28;20044;-81
2023/10/31 13:33:21;;;;;;;6.10;2.13;;;;;;;12.66;100.00;99909.41;10423846;28;20399;-77
2023/10/31 13:38:21;;;;;;;5.97;2.95;;;;;;;12.71;100.00;99905.16;10454483;28;20048;-79
2023/10/31 13:43:22;;;;;;;5.97;3.88;;;;;;;13.15;100.00;99899.13;10481356;28;22319;-81
2023/10/31 13:48:22;;;;;;;5.90;2.92;;;;;;;14.66;100.00;99923.00;10466215;28;20040;-79
2023/10/31 13:53:23;;;;;;;16.60;4.03;;;;;;;15.84;100.00;99943.94;10478994;28;20048;-80
2023/10/31 13:58:24;;;;;;;9.52;3.05;;;;;;;17.34;100.00;99955.78;10483004;28;20040;-80
2023/10/31 14:03:25;;;;;;;10.57;3.15;;;;;;;15.07;100.00;99967.56;10478952;28;20032;-79
2023/10/31 14:08:36;;;;;;;7.53;3.45;;;;;;;13.29;100.00;99949.34;10462247;28;20058;-79
2023/10/31 14:13:37;;;;;;;8.23;2.40;;;;;;;12.37;100.00;99948.94;10457781;28;20086;-79
2023/10/31 14:18:38;;;;;;;9.23;2.72;;;;;;;11.91;100.00;99938.06;10469522;28;20086;-81
2023/10/31 14:23:39;;;;;;;7.32;2.90;;;;;;;11.88;100.00;99936.28;10459600;28;20045;-81
2023/10/31 14:28:41;;;;;;;9.70;2.72;;;;;;;11.93;100.00;99946.00;10481620;28;20040;-81
2023/10/31 14:33:42;;;;;;;5.20;2.25;;;;;;;11.77;100.00;99936.81;10465443;28;20033;-81
2023/10/31 14:38:42;;;;;;;5.72;3.10;;;;;;;11.62;100.00;99942.53;10477482;28;20045;-80
2023/10/31 14:43:43;;;;;;;11.70;5.35;;;;;;;11.44;100.00;99939.41;10446289;28;20504;-80
2023/10/31 14:48:43;;;;;;;10.35;3.22;;;;;;;11.22;100.00;99957.94;10471869;28;20041;-80
2023/10/31 14:53:44;;;;;;;13.65;4.75;;;;;;;10.93;100.00;99973.63;10474174;28;20411;-79
2023/10/31 14:58:44;;;;;;;7.43;3.05;;;;;;;10.24;100.00;99991.41;10480761;28;20127;-79
2023/10/31 15:03:45;;;;;;;6.82;3.75;;;;;;;9.96;100.00;100027.03;10467699;28;20124;-80
2023/10/31 15:08:45;;;;;;;9.45;3.80;;;;;;;9.76;100.00;100031.50;10480156;28;20048;-79
2023/10/31 15:13:46;;;;;;;6.05;3.15;;;;;;;9.65;100.00;100039.81;10474843;28;20056;-78
2023/10/31 15:18:47;;;;;;;9.38;4.28;;;;;;;9.62;100.00;100041.44;10482551;28;20139;-78
2023/10/31 15:23:47;;;;;;;9.52;4.95;;;;;;;9.59;100.00;100044.81;10475184;28;20179;-78
2023/10/31 15:28:48;;;;;;;15.18;5.13;;;;;;;9.60;100.00;100041.38;10476602;28;20136;-80
2023/10/31 15:33:48;;;;;;;11.93;5.15;;;;;;;9.59;100.00;100049.16;10477263;28;20116;-80
2023/10/31 15:38:50;;;;;;;9.80;5.20;;;;;;;9.55;100.00;100049.03;10456550;28;20389;-78
2023/10/31 15:43:52;;;;;;;10.32;5.15;;;;;;;9.62;100.00;100060.59;10461291;28;20036;-77
2023/10/31 15:48:56;;;;;;;10.32;5.20;;;;;;;9.69;100.00;100060.00;10472924;28;20409;-78
2023/10/31 15:53:57;;;;;;;14.10;4.85;;;;;;;9.73;100.00;100067.97;10463826;28;20488;-77
2023/10/31 15:58:57;;;;;;;8.63;5.75;;;;;;;9.68;100.00;100066.06;10472668;28;20040;-78
2023/10/31 16:03:58;;;;;;;9.98;5.05;;;;;;;9.63;100.00;100075.44;10466602;28;20131;-77
2023/10/31 16:08:59;;;;;;;8.35;4.50;;;;;;;9.61;100.00;100086.69;10475874;28;20064;-78
2023/10/31 16:13:59;;;;;;;7.63;5.00;;;;;;;9.51;100.00;100082.81;10469155;28;20051;-78
2023/10/31 16:19:00;;;;;;;8.98;4.63;;;;;;;9.53;100.00;100088.97;10479820;28;20068;-79
2023/10/31 16:24:00;;;;;;;14.15;5.78;;;;;;;9.45;100.00;100101.75;10477772;28;20037;-78
2023/10/31 16:29:01;;;;;;;8.90;5.00;;;;;;;9.39;100.00;100097.16;10466000;28;20127;-78
2023/10/31 16:34:01;;;;;;;13.18;5.15;;;;;;;9.41;100.00;100099.84;10483794;28;20495;-78
2023/10/31 16:39:02;;;;;;;8.27;5.47;;;;;;;9.35;100.00;100094.38;10476210;28;20398;-78
2023/10/31 16:44:04;;;;;;;8.88;4.65;;;;;;;9.36;100.00;100099.66;10480251;28;20127;-79
2023/10/31 16:49:04;;;;;;;8.77;5.47;;;;;;;9.28;100.00;100102.78;10478900;28;20045;-79
2023/10/31 16:54:05;;;;;;;9.38;5.47;;;;;;;9.24;100.00;100104.38;10471325;28;20056;-77
2023/10/31 16:59:06;;;;;;;8.20;5.53;;;;;;;9.23;100.00;100111.34;10454533;28;20047;-78
2023/10/31 17:04:07;;;;;;;6.93;4.90;;;;;;;9.25;100.00;100117.50;10461086;28;20041;-77
2023/10/31 17:09:07;;;;;;;12.10;6.68;;;;;;;9.28;100.00;100114.13;10459530;28;20044;-78
2023/10/31 17:14:08;;;;;;;9.20;5.45;;;;;;;9.18;100.00;100123.31;10464128;28;20059;-78
2023/10/31 17:19:10;;;;;;;;;;;;;;;9.24;100.00;100131.38;10445486;28;20051;-78
2023/10/31 17:24:10;;;;;;;10.77;6.30;;;;;;;9.35;100.00;100129.19;10477411;28;20394;-78
2023/10/31 17:29:11;;;;;;;11.40;6.78;;;;;;;9.32;100.00;100118.63;10446400;28;20615;-77
2023/10/31 17:34:12;;;;;;;11.48;6.72;;;;;;;9.36;100.00;100127.50;10451142;28;20040;-76
2023/10/31 17:39:12;;;;;;;8.05;5.53;;;;;;;9.33;100.00;100127.38;10458392;28;20128;-77
2023/10/31 17:44:13;;;;;;;11.00;5.93;;;;;;;9.26;100.00;100126.22;10458344;28;20029;-77
2023/10/31 17:49:14;;;;;;;10.73;6.18;;;;;;;9.33;100.00;100135.22;10464893;28;20120;-77
2023/10/31 17:54:16;;;;;;;15.65;7.07;;;;;;;9.34;100.00;100130.03;10462942;28;20040;-77
2023/10/31 17:59:17;;;;;;;;;;;;;;;9.18;100.00;100132.84;10442227;28;20037;-78
2023/10/31 18:04:18;;;;;;;9.20;6.28;;;;;;;9.11;100.00;100139.53;10450612;28;19924;-78
2023/10/31 18:09:22;;;;;;;11.98;6.20;;;;;;;9.09;100.00;100129.03;10477972;28;20046;-76
2023/10/31 18:14:22;;;;;;;9.32;5.93;;;;;;;9.05;100.00;100145.38;10467031;28;20060;-76
2023/10/31 18:19:23;;;;;;;11.40;6.35;;;;;;;9.14;100.00;100141.38;10448569;28;20151;-77
2023/10/31 18:24:23;;;;;;;14.07;7.03;;;;;;;9.09;100.00;100139.47;10444683;28;20473;-76
2023/10/31 18:29:30;;;;;;;12.85;7.53;;;;;;;9.10;100.00;100145.59;10447380;28;20131;-77
2023/10/31 18:34:30;;;;;;;11.20;6.32;;;;;;;9.12;100.00;100146.53;10471848;28;20941;-77
2023/10/31 18:39:31;;;;;;;12.18;7.60;;;;;;;9.13;100.00;100134.38;10460087;28;20043;-77
2023/10/31 18:44:31;;;;;;;12.38;6.05;;;;;;;9.15;100.00;100137.94;10463798;28;20555;-77
2023/10/31 18:49:32;;;;;;;15.65;8.35;;;;;;;9.17;100.00;100131.06;10456204;28;20040;-76
2023/10/31 18:54:33;;;;;;;16.60;7.30;;;;;;;9.11;100.00;100129.09;10461004;28;20385;-77
2023/10/31 18:59:33;;;;;;;12.63;7.15;;;;;;;9.11;100.00;100129.09;10463305;28;20128;-77
2023/10/31 19:04:34;;;;;;;12.65;6.03;;;;;;;8.97;100.00;100120.69;10463846;28;20052;-77
2023/10/31 19:09:34;;;;;;;11.20;7.60;;;;;;;8.92;100.00;100123.09;10451529;28;20097;-77
2023/10/31 19:14:35;;;;;;;17.40;9.57;;;;;;;8.88;100.00;100109.84;10456939;28;20052;-78
2023/10/31 19:19:35;;;;;;;12.88;6.40;;;;;;;8.74;100.00;100107.53;10460958;28;20127;-78
2023/10/31 19:24:35;;;;;;;16.90;6.85;;;;;;;8.75;100.00;100116.28;10474950;28;20132;-76
2023/10/31 19:29:36;;;;;;;11.35;6.47;;;;;;;8.71;100.00;100116.97;10457912;28;20128;-77
2023/10/31 19:34:36;;;;;;;14.18;7.20;;;;;;;8.69;100.00;100114.28;10459486;28;20067;-76
2023/10/31 19:39:37;;;;;;;15.95;8.10;;;;;;;8.70;100.00;100125.63;10476441;28;20029;-77
2023/10/31 19:44:38;;;;;;;12.73;7.50;;;;;;;8.60;100.00;100132.13;10463268;28;20821;-77
2023/10/31 19:49:39;;;;;;;15.52;7.72;;;;;;;8.80;100.00;100131.28;10481746;28;20037;-76
2023/10/31 19:54:40;;;;;;;14.55;7.88;;;;;;;8.76;100.00;100131.97;10471870;28;20056;-77
2023/10/31 19:59:40;;;;;;;14.45;7.00;;;;;;;8.73;100.00;100128.38;10453454;28;20120;-77
2023/10/31 20:04:41;;;;;;;14.30;9.95;;;;;;;8.81;100.00;100129.59;10470924;28;20033;-76
2023/10/31 20:09:41;;;;;;;21.27;9.25;;;;;;;8.85;100.00;100135.81;10457155;28;20409;-77
2023/10/31 20:14:42;;;;;;;21.83;8.15;;;;;;;8.93;100.00;100135.34;10455775;28;20131;-77
2023/10/31 20:19:45;;;;;;;18.80;8.95;;;;;;;9.02;100.00;100132.19;10461884;28;20050;-76
2023/10/31 20:24:46;;;;;;;16.95;9.15;;;;;;;9.11;100.00;100129.09;10434089;28;20060;-76
2023/10/31 20:29:46;;;;;;;13.55;8.15;;;;;;;9.17;100.00;100124.13;10472214;28;20517;-77
2023/10/31 20:34:47;;;;;;;14.32;8.23;;;;;;;9.24;100.00;100127.88;10446212;28;20040;-77
2023/10/31 20:39:47;;;;;;;15.40;6.65;;;;;;;9.28;100.00;100116.72;10440203;28;20064;-76
2023/10/31 20:44:48;;;;;;;16.67;7.88;;;;;;;9.29;100.00;100101.97;10430056;28;20116;-76
2023/10/31 20:49:48;;;;;;;22.45;8.57;;;;;;;9.39;100.00;100115.44;10450595;28;20044;-77
2023/10/31 20:54:49;;;;;;;16.40;7.45;;;;;;;9.41;100.00;100120.75;10469099;28;20118;-76
2023/10/31 20:59:49;;;;;;;16.05;7.07;;;;;;;9.42;100.00;100114.69;10469275;28;20044;-76
2023/10/31 21:04:50;;;;;;;17.90;6.82;;;;;;;9.31;100.00;100111.63;10446776;28;20123;-78
2023/10/31 21:09:50;;;;;;;13.00;7.28;;;;;;;9.30;100.00;100104.63;10446388;28;20087;-78
2023/10/31 21:14:51;;;;;;;17.60;7.60;;;;;;;9.20;100.00;100107.69;10449209;28;20067;-78
2023/10/31 21:19:51;;;;;;;15.93;7.35;;;;;;;9.13;100.00;100116.09;10476715;28;20139;-78
2023/10/31 21:24:53;;;;;;;21.67;6.95;;;;;;;9.21;100.00;100127.75;10462629;28;20115;-78
2023/10/31 21:29:53;;;;;;;10.10;6.57;;;;;;;9.27;100.00;100125.38;10466195;28;20178;-78
2023/10/31 21:34:54;;;;;;;16.38;7.45;;;;;;;9.20;100.00;100116.44;10466095;28;20044;-78
2023/10/31 21:39:54;;;;;;;21.35;7.28;;;;;;;9.20;100.00;100120.75;10475715;28;20036;-78
2023/10/31 21:44:55;;;;;;;16.98;7.25;;;;;;;9.30;100.00;100119.41;10464991;28;20512;-78
2023/10/31 21:49:56;;;;;;;30.85;7.13;;;;;;;9.44;100.00;100117.34;10471128;28;20056;-78
2023/10/31 21:54:56;;;;;;;31.23;6.88;;;;;;;9.51;100.00;100115.06;10462390;28;20550;-79
2023/10/31 21:59:57;;;;;;;12.65;6.93;;;;;;;9.50;100.00;100110.66;10456379;28;20124;-78
2023/10/31 22:04:58;;;;;;;18.23;8.15;;;;;;;9.40;100.00;100114.63;10467574;28;20079;-78
2023/10/31 22:09:58;;;;;;;15.52;7.05;;;;;;;9.42;100.00;100113.78;10472466;28;20131;-78
2023/10/31 22:14:58;;;;;;;35.00;8.50;;;;;;;9.50;100.00;100109.75;10464144;28;20135;-78
2023/10/31 22:20:00;;;;;;;16.95;6.20;;;;;;;9.48;100.00;100103.59;10461426;28;20140;-78
2023/10/31 22:25:01;;;;;;;15.15;6.38;;;;;;;9.44;100.00;100117.34;10463947;28;20036;-78
2023/10/31 22:30:03;;;;;;;13.75;6.18;;;;;;;9.54;100.00;100130.84;10481525;28;20212;-78
2023/10/31 22:35:03;;;;;;;23.92;8.40;;;;;;;9.55;100.00;100124.81;10468560;28;20033;-78
2023/10/31 22:40:06;;;;;;;11.65;5.43;;;;;;;9.57;100.00;100132.69;10451012;28;20067;-77
2023/10/31 22:45:08;;;;;;;19.25;6.35;;;;;;;9.51;100.00;100133.34;10475737;28;20500;-78
2023/10/31 22:50:09;;;;;;;;;;;;;;;9.63;100.00;100126.81;10476263;28;20143;-78
2023/10/31 22:55:09;;;;;;;15.55;5.15;;;;;;;9.66;100.00;100119.09;10476090;28;19945;-79